createdAt,value
2023-05-01T00:01:59.055Z,97502.78
2023-05-01T00:04:25.641Z,97505.28
2023-05-01T00:06:52.510Z,97496.22
2023-05-01T00:09:19.215Z,97491.75
2023-05-01T00:11:46.731Z,97485.00
2023-05-01T00:14:13.356Z,97482.84
2023-05-01T00:16:40.009Z,97484.88
2023-05-01T00:19:06.630Z,97471.22
2023-05-01T00:21:33.214Z,97478.56
2023-05-01T00:24:00.122Z,97471.22
2023-05-01T00:26:30.567Z,97467.22
2023-05-01T00:28:58.486Z,97464.13
2023-05-01T00:31:26.029Z,97462.59
2023-05-01T00:33:52.908Z,97456.34
2023-05-01T00:36:19.608Z,97455.50
2023-05-01T00:38:46.605Z,97460.97
2023-05-01T00:41:13.325Z,97451.22
2023-05-01T00:43:39.946Z,97446.88
2023-05-01T00:46:08.545Z,97451.94
2023-05-01T00:48:35.530Z,97450.03
2023-05-01T00:51:06.346Z,97443.38
2023-05-01T00:53:33.916Z,97443.00
2023-05-01T00:56:01.120Z,97449.31
2023-05-01T00:58:28.156Z,97439.16
2023-05-01T01:00:55.491Z,97436.34
2023-05-01T01:03:22.266Z,97437.72
2023-05-01T01:06:03.828Z,97435.03
2023-05-01T01:08:37.331Z,97429.25
2023-05-01T01:11:27.069Z,97437.53
2023-05-01T01:14:15.799Z,97432.91
2023-05-01T01:17:21.398Z,97430.25
2023-05-01T01:20:19.093Z,97424.81
2023-05-01T01:22:53.513Z,97419.31
2023-05-01T01:25:38.600Z,97428.69
2023-05-01T01:28:26.380Z,97424.00
2023-05-01T01:31:11.380Z,97422.50
2023-05-01T01:33:50.205Z,97425.72
2023-05-01T01:36:22.865Z,97428.25
2023-05-01T01:39:03.929Z,97430.28
2023-05-01T01:41:41.780Z,97423.72
2023-05-01T01:44:31.121Z,97419.22
2023-05-01T01:47:00.126Z,97415.31
2023-05-01T01:49:31.863Z,97420.91
2023-05-01T01:52:02.066Z,97411.56
2023-05-01T01:54:37.919Z,97422.44
2023-05-01T01:57:07.515Z,97407.19
2023-05-01T01:59:35.311Z,97407.88
2023-05-01T02:02:03.291Z,97407.53
2023-05-01T02:04:31.374Z,97406.78
2023-05-01T02:07:00.073Z,97400.59
2023-05-01T02:09:29.826Z,97403.69
2023-05-01T02:11:57.853Z,97394.31
2023-05-01T02:14:27.238Z,97390.03
2023-05-01T02:16:55.318Z,97388.84
2023-05-01T02:19:22.685Z,97388.84
2023-05-01T02:21:50.428Z,97377.09
2023-05-01T02:24:18.549Z,97373.84
2023-05-01T02:26:51.901Z,97371.53
2023-05-01T02:29:18.506Z,97375.09
2023-05-01T02:31:45.155Z,97387.66
2023-05-01T02:34:12.483Z,97370.88
2023-05-01T02:36:39.170Z,97369.28
2023-05-01T02:39:06.792Z,97375.66
2023-05-01T02:41:35.143Z,97373.28
2023-05-01T02:44:04.999Z,97370.22
2023-05-01T02:46:37.242Z,97366.72
2023-05-01T02:49:05.407Z,97368.72
2023-05-01T02:51:32.675Z,97365.63
2023-05-01T02:54:00.232Z,97354.63
2023-05-01T02:56:28.202Z,97348.47
2023-05-01T02:58:55.383Z,97357.47
2023-05-01T03:01:22.378Z,97352.13
2023-05-01T03:03:49.053Z,97358.66
2023-05-01T03:06:15.738Z,97347.00
2023-05-01T03:08:42.363Z,97354.78
2023-05-01T03:11:09.664Z,97347.78
2023-05-01T03:13:36.437Z,97344.69
2023-05-01T03:16:04.876Z,97341.59
2023-05-01T03:18:31.859Z,97338.41
2023-05-01T03:20:58.502Z,97329.50
2023-05-01T03:23:25.656Z,97336.81
2023-05-01T03:25:52.752Z,97340.06
2023-05-01T03:28:20.743Z,97341.59
2023-05-01T03:30:47.550Z,97333.84
2023-05-01T03:33:14.223Z,97332.41
2023-05-01T03:35:41.017Z,97334.81
2023-05-01T03:38:08.169Z,97345.03
2023-05-01T03:40:34.844Z,97338.03
2023-05-01T03:43:01.494Z,97340.03
2023-05-01T03:45:28.301Z,97336.53
2023-05-01T03:47:55.261Z,97338.94
2023-05-01T03:50:22.154Z,97329.53
2023-05-01T03:52:48.776Z,97334.28
2023-05-01T03:55:16.078Z,97333.53
2023-05-01T03:57:42.802Z,97332.63
2023-05-01T04:00:11.939Z,97327.16
2023-05-01T04:02:38.813Z,97330.28
2023-05-01T04:05:08.538Z,97326.75
2023-05-01T04:07:35.282Z,97324.38
2023-05-01T04:10:01.897Z,97318.09
2023-05-01T04:12:28.502Z,97315.75
2023-05-01T04:14:55.135Z,97308.25
2023-05-01T04:17:21.800Z,97305.88
2023-05-01T04:19:48.936Z,97309.28
2023-05-01T04:22:16.327Z,97308.09
2023-05-01T04:24:43.038Z,97312.38
2023-05-01T04:27:09.993Z,97309.56
2023-05-01T04:29:36.622Z,97308.28
2023-05-01T04:32:03.553Z,97313.28
2023-05-01T04:34:30.192Z,97313.25
2023-05-01T04:36:57.460Z,97317.47
2023-05-01T04:39:24.278Z,97321.63
2023-05-01T04:41:50.910Z,97321.63
2023-05-01T04:44:17.456Z,97325.44
2023-05-01T04:46:44.055Z,97326.88
2023-05-01T04:49:10.761Z,97330.75
2023-05-01T04:51:37.345Z,97327.88
2023-05-01T04:54:04.880Z,97326.56
2023-05-01T04:56:32.394Z,97328.09
2023-05-01T04:58:59.060Z,97335.00
2023-05-01T05:01:25.690Z,97336.34
2023-05-01T05:03:52.623Z,97336.97
2023-05-01T05:06:19.524Z,97336.94
2023-05-01T05:08:46.168Z,97343.69
2023-05-01T05:11:13.016Z,97339.75
2023-05-01T05:13:39.671Z,97343.06
2023-05-01T05:16:06.669Z,97335.59
2023-05-01T05:18:33.289Z,97338.06
2023-05-01T05:21:03.669Z,97339.84
2023-05-01T05:23:30.320Z,97341.72
2023-05-01T05:25:58.586Z,97336.63
2023-05-01T05:28:25.416Z,97345.03
2023-05-01T05:30:52.478Z,97340.91
2023-05-01T05:33:19.260Z,97343.06
2023-05-01T05:35:46.083Z,97333.50
2023-05-01T05:38:12.718Z,97340.09
2023-05-01T05:40:39.387Z,97338.38
2023-05-01T05:43:05.960Z,97336.03
2023-05-01T05:45:35.858Z,97326.03
2023-05-01T05:48:03.049Z,97320.06
2023-05-01T05:50:30.199Z,97325.94
2023-05-01T05:52:56.865Z,97315.59
2023-05-01T05:55:23.403Z,97325.53
2023-05-01T05:57:50.012Z,97315.38
2023-05-01T06:00:17.354Z,97313.75
2023-05-01T06:02:44.018Z,97312.72
2023-05-01T06:05:10.887Z,97306.09
2023-05-01T06:07:38.083Z,97312.69
2023-05-01T06:10:05.528Z,97315.44
2023-05-01T06:12:32.560Z,97313.66
2023-05-01T06:15:00.605Z,97324.63
2023-05-01T06:17:27.294Z,97317.25
2023-05-01T06:19:54.118Z,97304.22
2023-05-01T06:22:21.005Z,97315.63
2023-05-01T06:24:47.653Z,97318.31
2023-05-01T06:27:14.540Z,97320.28
2023-05-01T06:29:41.565Z,97314.78
2023-05-01T06:32:08.183Z,97320.19
2023-05-01T06:34:34.889Z,97311.97
2023-05-01T06:37:01.546Z,97313.91
2023-05-01T06:39:29.060Z,97308.94
2023-05-01T06:41:55.899Z,97308.78
2023-05-01T06:44:22.619Z,97303.63
2023-05-01T06:46:49.361Z,97312.97
2023-05-01T06:49:15.996Z,97322.84
2023-05-01T06:51:42.693Z,97318.63
2023-05-01T06:54:09.526Z,97315.81
2023-05-01T06:56:36.194Z,97318.50
2023-05-01T06:59:02.772Z,97312.13
2023-05-01T07:01:31.114Z,97312.38
2023-05-01T07:03:58.691Z,97315.53
2023-05-01T07:06:25.366Z,97318.03
2023-05-01T07:08:52.177Z,97310.50
2023-05-01T07:11:18.873Z,97312.19
2023-05-01T07:13:45.885Z,97301.06
2023-05-01T07:16:12.562Z,97301.56
2023-05-01T07:18:39.398Z,97303.63
2023-05-01T07:21:06.319Z,97299.94
2023-05-01T07:23:33.119Z,97300.03
2023-05-01T07:25:59.761Z,97292.66
2023-05-01T07:28:26.325Z,97299.78
2023-05-01T07:30:53.063Z,97310.31
2023-05-01T07:33:19.747Z,97309.69
2023-05-01T07:35:46.812Z,97309.84
2023-05-01T07:38:14.239Z,97305.47
2023-05-01T07:40:41.089Z,97306.16
2023-05-01T07:43:11.265Z,97309.88
2023-05-01T07:45:39.277Z,97309.31
2023-05-01T07:48:06.449Z,97306.94
2023-05-01T07:50:33.276Z,97302.25
2023-05-01T07:52:59.954Z,97305.75
2023-05-01T07:55:26.749Z,97306.78
2023-05-01T07:57:53.617Z,97312.13
2023-05-01T08:00:20.376Z,97315.19
2023-05-01T08:02:47.404Z,97303.44
2023-05-01T08:05:14.584Z,97308.84
2023-05-01T08:07:41.187Z,97309.88
2023-05-01T08:10:08.314Z,97311.09
2023-05-01T08:12:35.002Z,97311.28
2023-05-01T08:15:01.787Z,97308.06
2023-05-01T08:17:28.470Z,97303.22
2023-05-01T08:19:57.007Z,97307.03
2023-05-01T08:22:24.310Z,97305.84
2023-05-01T08:24:51.448Z,97313.69
2023-05-01T08:27:18.368Z,97310.78
2023-05-01T08:29:45.166Z,97313.16
2023-05-01T08:32:11.945Z,97315.63
2023-05-01T08:34:38.507Z,97307.84
2023-05-01T08:37:05.264Z,97305.78
2023-05-01T08:39:31.922Z,97318.38
2023-05-01T08:41:59.497Z,97317.38
2023-05-01T08:44:29.718Z,97315.50
2023-05-01T08:47:06.891Z,97315.72
2023-05-01T08:49:37.016Z,97321.19
2023-05-01T08:52:06.358Z,97322.22
2023-05-01T08:54:34.745Z,97322.31
2023-05-01T08:57:06.303Z,97330.00
2023-05-01T08:59:37.298Z,97333.66
2023-05-01T09:02:06.758Z,97326.50
2023-05-01T09:04:38.566Z,97335.66
2023-05-01T09:07:05.673Z,97334.34
2023-05-01T09:09:32.991Z,97342.84
2023-05-01T09:12:24.803Z,97334.97
2023-05-01T09:14:55.428Z,97344.84
2023-05-01T09:17:23.613Z,97344.81
2023-05-01T09:19:53.524Z,97340.06
2023-05-01T09:22:20.693Z,97349.38
2023-05-01T09:24:47.352Z,97351.88
2023-05-01T09:27:14.773Z,97347.69
2023-05-01T09:29:45.826Z,97344.94
2023-05-01T09:32:21.750Z,97342.50
2023-05-01T09:34:52.375Z,97357.28
2023-05-01T09:37:30.526Z,97354.50
2023-05-01T09:40:11.677Z,97360.16
2023-05-01T09:42:49.612Z,97363.06
2023-05-01T09:45:16.911Z,97367.44
2023-05-01T09:47:44.303Z,97367.78
2023-05-01T09:50:30.247Z,97372.28
2023-05-01T09:52:56.828Z,97378.28
2023-05-01T09:55:26.737Z,97368.84
2023-05-01T09:57:56.630Z,97377.19
2023-05-01T10:00:23.134Z,97382.88
2023-05-01T10:02:50.747Z,97383.91
2023-05-01T10:05:18.392Z,97384.44
2023-05-01T10:08:03.902Z,97385.06
2023-05-01T10:10:30.882Z,97390.81
2023-05-01T10:13:18.802Z,97387.66
2023-05-01T10:15:48.405Z,97389.22
2023-05-01T10:18:15.386Z,97404.84
2023-05-01T10:20:42.150Z,97386.81
2023-05-01T10:23:08.957Z,97390.38
2023-05-01T10:25:37.275Z,97390.34
2023-05-01T10:28:05.043Z,97392.91
2023-05-01T10:30:31.702Z,97402.13
2023-05-01T10:32:59.642Z,97393.22
2023-05-01T10:35:30.231Z,97400.97
2023-05-01T10:38:02.091Z,97387.25
2023-05-01T10:40:43.955Z,97388.38
2023-05-01T10:43:30.832Z,97398.41
2023-05-01T10:46:09.710Z,97393.13
2023-05-01T10:48:45.202Z,97393.75
2023-05-01T10:51:13.588Z,97393.50
2023-05-01T10:53:41.553Z,97394.06
2023-05-01T10:56:25.526Z,97386.53
2023-05-01T10:59:05.238Z,97375.78
2023-05-01T11:01:36.996Z,97386.53
2023-05-01T11:04:26.434Z,97389.03
2023-05-01T11:07:02.404Z,97380.38
2023-05-01T11:09:42.422Z,97381.63
2023-05-01T11:12:11.442Z,97378.97
2023-05-01T11:15:04.008Z,97369.94
2023-05-01T11:17:39.703Z,97363.38
2023-05-01T11:20:11.297Z,97366.31
2023-05-01T11:22:40.922Z,97364.97
2023-05-01T11:25:22.535Z,97366.22
2023-05-01T11:27:51.120Z,97357.78
2023-05-01T11:30:18.415Z,97361.38
2023-05-01T11:32:47.423Z,97355.75
2023-05-01T11:35:28.603Z,97344.94
2023-05-01T11:37:58.299Z,97344.63
2023-05-01T11:40:32.666Z,97343.34
2023-05-01T11:43:17.078Z,97342.69
2023-05-01T11:45:44.048Z,97340.31
2023-05-01T11:48:16.757Z,97339.63
2023-05-01T11:50:43.786Z,97339.91
2023-05-01T11:53:12.111Z,97347.53
2023-05-01T11:55:38.999Z,97337.47
2023-05-01T11:58:06.406Z,97341.31
2023-05-01T12:00:38.702Z,97341.81
2023-05-01T12:03:10.749Z,97335.94
2023-05-01T12:05:43.147Z,97329.34
2023-05-01T12:08:18.852Z,97338.81
2023-05-01T12:10:48.414Z,97342.16
2023-05-01T12:13:17.197Z,97334.34
2023-05-01T12:15:47.151Z,97328.38
2023-05-01T12:18:15.452Z,97329.78
2023-05-01T12:20:44.922Z,97333.13
2023-05-01T12:23:14.667Z,97325.63
2023-05-01T12:25:43.142Z,97325.16
2023-05-01T12:28:19.148Z,97332.34
2023-05-01T12:30:47.992Z,97330.50
2023-05-01T12:33:21.544Z,97333.34
2023-05-01T12:35:50.820Z,97326.81
2023-05-01T12:38:19.314Z,97331.78
2023-05-01T12:40:56.023Z,97330.44
2023-05-01T12:43:31.531Z,97330.72
2023-05-01T12:45:58.434Z,97332.94
2023-05-01T12:48:25.394Z,97328.97
2023-05-01T12:50:55.494Z,97332.25
2023-05-01T12:53:23.459Z,97329.13
2023-05-01T12:55:53.745Z,97329.78
2023-05-01T12:58:21.420Z,97333.22
2023-05-01T13:00:53.706Z,97324.22
2023-05-01T13:03:27.968Z,97330.38
2023-05-01T13:05:58.950Z,97319.84
2023-05-01T13:08:27.815Z,97315.97
2023-05-01T13:10:57.320Z,97318.63
2023-05-01T13:13:29.153Z,97316.44
2023-05-01T13:16:06.100Z,97314.22
2023-05-01T13:18:33.777Z,97309.94
2023-05-01T13:21:09.044Z,97313.66
2023-05-01T13:23:39.270Z,97307.38
2023-05-01T13:26:07.801Z,97301.28
2023-05-01T13:28:36.001Z,97299.78
2023-05-01T13:31:02.597Z,97301.13
2023-05-01T13:33:31.978Z,97299.50
2023-05-01T13:35:58.594Z,97306.09
2023-05-01T13:38:25.306Z,97300.38
2023-05-01T13:40:51.844Z,97300.25
2023-05-01T13:43:18.444Z,97294.81
2023-05-01T13:45:45.138Z,97298.44
2023-05-01T13:48:12.720Z,97302.34
2023-05-01T13:50:42.749Z,97302.28
2023-05-01T13:53:09.842Z,97296.69
2023-05-01T13:55:40.208Z,97294.78
2023-05-01T13:58:07.350Z,97300.38
2023-05-01T14:00:34.336Z,97306.47
2023-05-01T14:03:01.083Z,97299.50
2023-05-01T14:05:30.854Z,97294.28
2023-05-01T14:07:58.720Z,97289.59
2023-05-01T14:10:28.264Z,97289.50
2023-05-01T14:12:59.255Z,97297.16
2023-05-01T14:15:26.522Z,97289.75
2023-05-01T14:17:53.483Z,97282.03
2023-05-01T14:20:20.212Z,97287.56
2023-05-01T14:22:48.846Z,97285.50
2023-05-01T14:25:31.478Z,97285.88
2023-05-01T14:27:59.958Z,97287.97
2023-05-01T14:30:33.631Z,97286.78
2023-05-01T14:33:06.280Z,97287.56
2023-05-01T14:35:33.891Z,97292.31
2023-05-01T14:38:11.382Z,97291.59
2023-05-01T14:40:42.197Z,97287.28
2023-05-01T14:43:13.414Z,97286.94
2023-05-01T14:45:42.993Z,97287.06
2023-05-01T14:48:20.581Z,97287.53
2023-05-01T14:50:47.259Z,97288.47
2023-05-01T14:53:14.178Z,97293.41
2023-05-01T14:55:41.920Z,97288.06
2023-05-01T14:58:08.583Z,97282.03
2023-05-01T15:00:35.598Z,97288.69
2023-05-01T15:03:02.841Z,97279.38
2023-05-01T15:05:30.208Z,97284.69
2023-05-01T15:07:57.324Z,97285.78
2023-05-01T15:10:24.077Z,97289.38
2023-05-01T15:12:51.472Z,97283.59
2023-05-01T15:15:18.144Z,97287.50
2023-05-01T15:17:45.455Z,97290.47
2023-05-01T15:20:13.336Z,97287.72
2023-05-01T15:22:41.065Z,97287.34
2023-05-01T15:25:10.166Z,97289.94
2023-05-01T15:27:37.024Z,97287.81
2023-05-01T15:30:05.458Z,97295.81
2023-05-01T15:32:32.262Z,97290.25
2023-05-01T15:34:59.242Z,97290.78
2023-05-01T15:37:26.228Z,97298.63
2023-05-01T15:39:53.125Z,97301.69
2023-05-01T15:42:20.198Z,97294.44
2023-05-01T15:44:48.045Z,97291.44
2023-05-01T15:47:17.747Z,97288.38
2023-05-01T15:49:44.444Z,97298.88
2023-05-01T15:52:11.551Z,97293.81
2023-05-01T15:54:38.219Z,97299.50
2023-05-01T15:57:05.002Z,97297.16
2023-05-01T15:59:31.609Z,97291.00
2023-05-01T16:01:58.431Z,97295.19
2023-05-01T16:04:25.015Z,97293.13
2023-05-01T16:06:51.799Z,97295.84
2023-05-01T16:09:19.128Z,97293.38
2023-05-01T16:11:45.885Z,97301.69
2023-05-01T16:14:15.255Z,97291.22
2023-05-01T16:16:42.844Z,97295.63
2023-05-01T16:19:09.566Z,97305.00
2023-05-01T16:21:37.573Z,97298.53
2023-05-01T16:24:04.704Z,97296.44
2023-05-01T16:26:31.592Z,97309.81
2023-05-01T16:29:05.469Z,97312.69
2023-05-01T16:31:38.959Z,97309.38
2023-05-01T16:34:07.441Z,97319.16
2023-05-01T16:36:36.221Z,97313.88
2023-05-01T16:39:03.341Z,97316.09
2023-05-01T16:41:30.108Z,97323.13
2023-05-01T16:44:00.046Z,97328.94
2023-05-01T16:46:26.835Z,97319.09
2023-05-01T16:48:55.290Z,97316.19
2023-05-01T16:51:22.106Z,97319.16
2023-05-01T16:53:48.820Z,97323.13
2023-05-01T16:56:15.384Z,97326.50
2023-05-01T16:58:43.965Z,97326.06
2023-05-01T17:01:10.690Z,97322.88
2023-05-01T17:03:38.047Z,97328.28
2023-05-01T17:06:05.071Z,97333.03
2023-05-01T17:08:31.947Z,97338.94
2023-05-01T17:10:58.670Z,97335.31
2023-05-01T17:13:25.315Z,97332.22
2023-05-01T17:15:52.808Z,97349.91
2023-05-01T17:18:20.946Z,97347.31
2023-05-01T17:20:48.988Z,97349.91
2023-05-01T17:23:16.212Z,97354.91
2023-05-01T17:25:43.543Z,97349.91
2023-05-01T17:28:10.725Z,97357.97
2023-05-01T17:30:37.283Z,97354.44
2023-05-01T17:33:04.464Z,97356.88
2023-05-01T17:35:31.573Z,97355.97
2023-05-01T17:37:58.513Z,97351.88
2023-05-01T17:40:25.085Z,97362.00
2023-05-01T17:42:51.626Z,97362.00
2023-05-01T17:45:19.382Z,97362.69
2023-05-01T17:47:46.782Z,97362.78
2023-05-01T17:50:14.214Z,97365.97
2023-05-01T17:52:42.158Z,97374.06
2023-05-01T17:55:09.692Z,97361.47
2023-05-01T17:57:37.131Z,97367.25
2023-05-01T18:00:04.637Z,97365.50
2023-05-01T18:02:31.875Z,97372.88
2023-05-01T18:04:58.687Z,97361.66
2023-05-01T18:07:26.038Z,97371.69
2023-05-01T18:09:53.292Z,97373.41
2023-05-01T18:12:19.907Z,97364.72
2023-05-01T18:14:46.600Z,97368.22
2023-05-01T18:17:13.300Z,97369.53
2023-05-01T18:19:39.989Z,97366.19
2023-05-01T18:22:07.423Z,97376.22
2023-05-01T18:24:34.070Z,97377.78
2023-05-01T18:27:01.077Z,97382.56
2023-05-01T18:29:27.719Z,97374.78
2023-05-01T18:31:57.400Z,97376.59
2023-05-01T18:34:27.372Z,97375.16
2023-05-01T18:36:54.772Z,97385.50
2023-05-01T18:39:22.461Z,97381.44
2023-05-01T18:41:50.212Z,97383.41
2023-05-01T18:44:17.852Z,97394.28
2023-05-01T18:46:44.843Z,97393.38
2023-05-01T18:49:11.687Z,97401.72
2023-05-01T18:51:38.368Z,97400.56
2023-05-01T18:54:07.144Z,97406.75
2023-05-01T18:56:34.493Z,97409.75
2023-05-01T18:59:01.316Z,97415.22
2023-05-01T19:01:28.024Z,97420.94
2023-05-01T19:03:59.157Z,97418.19
2023-05-01T19:06:26.814Z,97421.69
2023-05-01T19:08:53.880Z,97420.94
2023-05-01T19:11:21.718Z,97420.00
2023-05-01T19:13:48.930Z,97427.47
2023-05-01T19:16:15.644Z,97428.66
2023-05-01T19:18:42.246Z,97433.78
2023-05-01T19:21:09.221Z,97432.25
2023-05-01T19:23:37.610Z,97433.78
2023-05-01T19:26:06.324Z,97432.53
2023-05-01T19:28:32.932Z,97443.94
2023-05-01T19:30:59.573Z,97439.47
2023-05-01T19:33:26.300Z,97442.31
2023-05-01T19:35:52.949Z,97434.72
2023-05-01T19:38:19.626Z,97447.88
2023-05-01T19:40:46.339Z,97444.78
2023-05-01T19:43:18.364Z,97450.47
2023-05-01T19:45:45.012Z,97456.72
2023-05-01T19:48:11.702Z,97458.16
2023-05-01T19:50:38.424Z,97462.63
2023-05-01T19:53:05.723Z,97468.47
2023-05-01T19:55:32.434Z,97467.44
2023-05-01T19:57:59.152Z,97471.22
2023-05-01T20:00:27.701Z,97473.63
2023-05-01T20:02:54.378Z,97478.50
2023-05-01T20:05:30.531Z,97483.31
2023-05-01T20:07:58.702Z,97490.78
2023-05-01T20:10:25.755Z,97488.06
2023-05-01T20:12:52.560Z,97492.84
2023-05-01T20:15:19.725Z,97480.47
2023-05-01T20:17:50.389Z,97488.38
2023-05-01T20:20:19.384Z,97494.03
2023-05-01T20:22:51.707Z,97500.41
2023-05-01T20:25:18.257Z,97502.88
2023-05-01T20:27:44.814Z,97506.75
2023-05-01T20:30:11.747Z,97510.00
2023-05-01T20:32:44.416Z,97514.97
2023-05-01T20:35:11.789Z,97522.00
2023-05-01T20:37:38.454Z,97526.63
2023-05-01T20:40:07.232Z,97524.25
2023-05-01T20:42:33.884Z,97530.25
2023-05-01T20:45:00.498Z,97522.78
2023-05-01T20:47:27.117Z,97522.69
2023-05-01T20:49:54.196Z,97528.78
2023-05-01T20:52:20.916Z,97525.53
2023-05-01T20:54:47.565Z,97528.78
2023-05-01T20:57:16.552Z,97531.97
2023-05-01T20:59:48.395Z,97525.63
2023-05-01T21:02:16.464Z,97532.03
2023-05-01T21:04:49.194Z,97531.19
2023-05-01T21:07:16.181Z,97529.81
2023-05-01T21:09:46.662Z,97532.19
2023-05-01T21:12:14.130Z,97536.97
2023-05-01T21:14:41.280Z,97535.94
2023-05-01T21:17:08.867Z,97539.66
2023-05-01T21:19:42.358Z,97540.06
2023-05-01T21:22:18.032Z,97547.69
2023-05-01T21:24:45.535Z,97542.69
2023-05-01T21:27:12.541Z,97552.03
2023-05-01T21:29:40.393Z,97555.28
2023-05-01T21:32:08.432Z,97550.56
2023-05-01T21:34:35.608Z,97558.03
2023-05-01T21:37:02.330Z,97555.34
2023-05-01T21:39:31.031Z,97566.31
2023-05-01T21:41:57.627Z,97575.47
2023-05-01T21:44:29.860Z,97572.38
2023-05-01T21:46:57.956Z,97583.81
2023-05-01T21:49:27.147Z,97578.41
2023-05-01T21:51:58.279Z,97584.66
2023-05-01T21:54:27.844Z,97582.28
2023-05-01T21:56:59.499Z,97591.03
2023-05-01T21:59:35.121Z,97590.56
2023-05-01T22:02:09.915Z,97597.03
2023-05-01T22:04:37.381Z,97600.97
2023-05-01T22:07:04.810Z,97593.94
2023-05-01T22:09:32.325Z,97596.78
2023-05-01T22:11:59.160Z,97597.56
2023-05-01T22:14:33.621Z,97608.97
2023-05-01T22:17:10.653Z,97607.00
2023-05-01T22:19:38.169Z,97601.63
2023-05-01T22:22:04.816Z,97614.97
2023-05-01T22:24:31.742Z,97611.78
2023-05-01T22:26:58.397Z,97610.25
2023-05-01T22:29:25.376Z,97604.00
2023-05-01T22:31:51.979Z,97604.00
2023-05-01T22:34:18.602Z,97606.13
2023-05-01T22:36:45.252Z,97596.97
2023-05-01T22:39:12.283Z,97608.66
2023-05-01T22:41:42.931Z,97604.44
2023-05-01T22:44:09.557Z,97603.16
2023-05-01T22:46:36.174Z,97604.19
2023-05-01T22:49:04.360Z,97602.66
2023-05-01T22:51:31.205Z,97608.91
2023-05-01T22:53:57.894Z,97601.53
2023-05-01T22:56:26.391Z,97600.25
2023-05-01T22:58:53.112Z,97600.75
2023-05-01T23:01:20.126Z,97595.44
2023-05-01T23:03:46.978Z,97602.91
2023-05-01T23:06:13.694Z,97602.47
2023-05-01T23:08:40.806Z,97609.53
2023-05-01T23:11:10.083Z,97606.16
2023-05-01T23:13:37.480Z,97612.84
2023-05-01T23:16:04.482Z,97601.97
2023-05-01T23:18:36.655Z,97614.97
2023-05-01T23:21:03.513Z,97594.63
2023-05-01T23:23:31.083Z,97603.28
2023-05-01T23:25:57.784Z,97605.75
2023-05-01T23:28:26.090Z,97603.84
2023-05-01T23:31:03.521Z,97605.03
2023-05-01T23:33:39.106Z,97609.38
2023-05-01T23:36:12.873Z,97607.56
2023-05-01T23:38:40.559Z,97605.94
2023-05-01T23:41:08.476Z,97606.16
2023-05-01T23:43:36.317Z,97600.69
2023-05-01T23:46:04.091Z,97606.50
2023-05-01T23:48:32.132Z,97597.56
2023-05-01T23:50:58.907Z,97600.78
2023-05-01T23:53:25.856Z,97602.47
2023-05-01T23:55:52.665Z,97610.25
2023-05-01T23:58:19.328Z,97605.25
